Timeline UpdatesTrip UpdatesNews PostsPvt PostsTravel TipsAdmin PostsConv PostsFollowed PostsChat RequestsBlog PostsPNR Posts

Disclaimer
Search
 
 
Wed Apr 16, 2014 21:48:21 ISTHomeTrainsΣChainsAtlasPNRForumGalleryNewsFAQTripsMembersLoginFeedback
No Recent News for this Train
Other Trains in the News **new
Latest...
⇐ Return Journey: Train# 59812

59811/Haldighati Passenger

Feb 23 2014 (1:14AM)
Change Departure Station:
Change Arrival Station:
Post a Train Travel TipPost a Train Travel Tip **new
Post a Comment/Question/Picture/VideoPost a Comment/Question/Picture/Video
Pantry/Catering
✕ NO Pantry Car
✓ Catering Avbl
Loco/Rake Reversals
KOTA/Kota Junction (5);
RSA - Rake Sharing
Comes to AF as 59811, departs as 59814
Rake/Coach Composition
Loco-SLR+Handicapped-GS1-GS2-GS3-GS4-GS5-S1-S2-S3-GS6-GS7-GS8-SLR; Total Length-13 Coaches
Loco
Rtm-Kota:- WDM 3A RTM shed Kota-AF:- WAM 4E BRC shed Re# 549005-21
News    PNR    Forum    Time-Table    Availability    Fare Chart    Map    Arr/Dep History    Trips    Gallery    ΣChains    X/O    Timeline    
Travel Time: 1h 28m    7 halts    Distance: 50 km    Avg Speed: 34 km/hr
Type: Passenger
Zone: WR/Western
Departs @ 04:32 (Avg 11m late)
Platform# ???
SMTWTFS
Rupbas/RBS 
Arrives @ 06:00 (Avg 10m late)
Platform# 2
SMTWTFS
Agra Fort/AF 

7 halts. 7 intermediate Stations between Rupbas and Agra Fort

Show ALL intermediate Stations  Show Old Time-Table

#CodeStation NameX/OArrivesAvgDepartsAvgHaltPFDay#KmSpeedElevZoneAddress
1RTMRatlam Junction (7)  -09:55+4--1-647.952495mWRRatlam, Madhya Pradesh
2NLINamli  10:10+1110:11+111m--1-635.063494mWRNamli, Madhya Pradesh
3BRLABrayla Chaurasi  10:22+1110:23+121m--1-623.456486mWRBadayla Chorasi Rd, Madhya Pradesh
4JAOJaora (2)  10:32+1410:33+171m11-615.072476mWRJaora, Madhya Pradesh
5DODDhodhar  10:47+1910:48+191m--1-598.156478mWRDhodar, Madhya Pradesh
6KHNRKachnara  10:56+1710:57+171m--1-590.657492mWRKachnara, Madhya Pradesh
7DLDDalauda  11:10+2211:11+231m--1-578.273469mWRDalauda, Madhya Pradesh
8MDSMandsor (2)  11:23+2411:24+291m--1-563.659436mWRMandsaur, Madhya Pradesh
9PIPPiplia (1)  11:40+2911:41+291m11-547.948472mWRPanth Pipalia, Madhya Pradesh
10MLGMalhargarh  11:51+3011:52+311m--1-539.924466mWRMalhargarh, Madhya Pradesh
11HKLHarkia KhalX  12:22+1312:23+161m--1-527.736455mWRState Highway 31, Rajasthan
12NMHNimach (3)X  12:45+712:55+1110m--1-514.665490mWRMDR 11A, Madhya Pradesh
13BIWKBisalwas Kalan  13:04+1313:05+141m--1-504.840477mWRMDR 11A, Rajasthan
14JWOJawad Road  13:15+1213:16+121m--1-498.162462mWRNayagaon, Rajasthan
15NBHNimbahera (1)  13:26+1113:27+121m11-487.956441mWRNimbahera, Rajasthan
16GRFGambhiri Road  13:36+1213:37+121m11-479.555441mWRNational Highway 79, Rajasthan
17SMPShambhupura  13:47+1013:48+101m--1-470.358423mWRShambhupura, Rajasthan
18CORChittaurgarh Junction (5)X  14:00+814:10+610m--1-458.615403mWRChittorgarh, Rajasthan
19CNAChanderiya (2)  14:38-114:40+02m--1-451.745408mWRChittorgarh, Rajasthan
20BSSLBasi Beriasal  15:03+1715:04+181m--1-434.371412mWCRBassi, Rajasthan
21PSLIParsoli  15:18+2015:20+192m--1-417.663380mWCRNH 76, Rajasthan
22BNDIBarundini  15:29+2115:30+221m--1-408.251373mWCRNational Highway 76, Rajasthan
23MLGHMandalgarh  15:48+2015:50+222m--1-393.148382mWCRMandalgarh, Rajasthan
24SMPAShampura  16:10+2316:12+232m--1-377.162395mWCRMandalgarh, Rajasthan
25URMLUpramal  16:22+2316:23+251m--1-366.952390mWCRMDR 41, Rajasthan
26JNRIJalindri  16:31+2416:32+281m--1-359.955 WCR
27SNARSrinagar RajasthanX  16:58+3317:00+382m--1-335.913259mWCRShreenagar RJ, Rajasthan
28BUDIBundi  17:48+1317:50+162m--1-325.635256mWCRBundi, Rajasthan
29THEAThaleraO  18:14+918:15+461m--1-311.614248mWCRTalera, Rajasthan
30KOTAKota Junction (5)↵¶20:20+421:00+240m11-282.941256mWCRKota, Rajasthan
31GQLGurla  21:08+021:10+02m--1-277.553251mWCRSH 33, Rajasthan
32KPTNKeshorai Patan  21:19+621:20+101m--1-269.573243mWCRSH 33, Rajasthan
33AREArnetha  21:29+1021:30+101m--1-258.661239mWCRShreepura, Rajasthan
34KPZKaprenX  21:39+1121:40+131m--1-249.467234mWCRKota - Lalsot Mega Highway, Rajasthan
35GKBGhataka VaranaX  21:49+1521:50+161m--1-239.462232mWCRSH 33, Rajasthan
36LBNLaban (2)X  21:59+1622:00+181m--1-230.050225mWCRBundi, Rajasthan
37LKELakheri (3)XO  22:09+1722:10+181m--1-222.466228mWCRBundi, Rajasthan
38IDGIndargarh Sumerganj Mandi (2)X  22:20+2122:22+262m--1-211.578247mWCRIndargarh, Rajasthan
39AMLIAmliX  22:32+2622:34+252m--1-198.465233mWCRSawai Madhopur, Rajasthan
40RWJRawania DungarX  22:41+2622:43+302m--1-190.856266mWCRSawai Madhopur, Rajasthan
41KTAKushtalaX  22:52+2922:54+292m--1-182.327283mWCRNH 116, Rajasthan
42SWMSawai Madhopur Junction (4)XO  23:10+2323:15+245m--1-175.277266mWCRSawai Madhopur, Rajasthan
43RNTRanthambhore  23:23+3123:25+302m--1-165.0110248mWCRMDR 111, Rajasthan
44MXLMokholi  23:30+3223:35+295m--1-155.865242mWCRMDR 111, Rajasthan
45MLZMalarna  23:45+2823:47+302m--1-145.027236mWCRSawai Madhopur, Rajasthan
46NMDNomodaX  00:03+2200:04+251m--2-137.958238mWCRMDR 111, Rajasthan
47NNWNarayanpur Tatwara (2)  00:14+2600:15+281m--2-128.271256mWCRSawai Madhopur, Rajasthan
48LRULalpur UmriX  00:24+3000:25+391m--2-117.613276mWCRSH 1, Rajasthan
49GGCGangapur City (3)O  00:55+2001:05+1910m--2-111.364270mWCRGangapur, Rajasthan
50COOChhoti Odai  01:17+2201:18+251m--2-98.547257mWCRSH 25, Rajasthan
51PDZPiliodaXO  01:28+2501:30+242m--2-90.745247mWCRSH 1, Rajasthan
52SMBJShri Mahabirji (3)X  01:48+2301:50+252m--2-77.234240mWCRKarauli, Rajasthan
53HANHindaun City (2)X  02:08+1802:10+202m--2-67.072230mWCRKarauli, Rajasthan
54FSPFateh Singhpura  02:21+2302:23+222m--2-53.871223mWCRState Highway 1, Rajasthan
55DYDumariya (2)  02:32+2302:34+312m--2-43.212211mWCRState Highway 1, Rajasthan
56BXNBayana Junction (3)  03:20+603:45+025m--2-34.145198mWCRBayana, Rajasthan
57BAMABirambad (1)XO  03:51+903:52+91m12-29.646196mNCRDumariya, Rajasthan
58BRBandh Bareta (1)X  03:58+1003:59+111m12-25.049203mNCRDumariya, Rajasthan
59NGLTNaglatula (1)  04:06+1104:07+111m12-19.354209mNCRBayana, Rajasthan
60BIQBansi Paharpur (1)  04:14+1104:15+111m12-13.050216mNCRRupbas, Rajasthan
61DXKDhana Kherli (1)  04:22+1004:23+101m12-7.254192mNCRFatehpur Sikri, Uttar Pradesh
62RBS»Rupbas (2)»  04:31+1004:32+111m--20.040178mNCRJAGNER ROAD, Rajasthan
63AEDAulenda (1)  04:40+1004:41+91m125.359179mNCRKiraoli, Uttar Pradesh
64FTSFatehpur Sikri (2)  04:50+904:51+121m--214.238176mNCRAgra, Uttar Pradesh
65SNPRSingarpur (1)  04:59+1105:00+111m1219.362168mNCRRupbas, Rajasthan
66KLBKiraoli (1)  05:07+1105:08+131m1226.654174mNCRKiraoli, Uttar Pradesh
67MIQMirhakur (1)  05:17+1205:18+121m1234.740172mNCRIdgah Agra, Uttar Pradesh
68PTLIPathauli (1)X  05:27+1205:28+131m1240.757174mNCRAgra Fort, Uttar Pradesh
69IDHIdgah Agra Junction (3)  05:36+1605:38+172m--248.26168mNCRAgra, Uttar Pradesh
70AF•Agra Fort (3)•  06:00+10-2250.4-170mNCRRakabganj, Uttar Pradesh
Scroll to Top
Scroll to Bottom